Altona, New York
Current Conditions -  °F | °C
As of 3:53 PM on Friday 31 Oct 2014 (Local Time) from KPBG Reporting Station
Clear Clear  
Wind Chill: 41°   Ceiling: Unl
Heat Index: 46°   Visibility: 10mi
Dew Point: 32°   Wind: 9mph
Humidity: 58%   Direction: 30°NNE
Pressure: 30.02"   Gusts: NA
Location:  44.89°N, 73.66°W
Report Text: KPBG 311953Z AUTO 03008KT 10SM CLR 08/00 A3002 RMK AO2 SLP168 T00780000
Loading
Personal Weather Stations






























Interactive Weather Map
Tropical Storm Tracking
New forecast layout! Learn more

10-Day Weather Forecast

Advertisements
Track Severe Weather on mobile